Time;durP1;ratioP1;P1;durP2;ratioP2;P2;SDS_P1;SDS_P2;PMS_P1;PMS_P2;Temp;Humidity;BMP_temperature;BMP_pressure;BME280_temperature;BME280_humidity;BME280_pressure;Samples;Min_cycle;Max_cycle;Signal;HPM_P1;HPM_P2
2023/06/11 00:01:41;;;;;;;8.52;4.80;;;;;;;23.63;37.09;101329.34;16110949;19;130799;-46
2023/06/11 00:07:05;;;;;;;5.68;4.82;;;;;;;23.62;37.19;101322.09;16115241;19;131142;-44
2023/06/11 00:12:27;;;;;;;7.85;4.50;;;;;;;23.62;37.00;101321.25;16118437;19;130243;-47
2023/06/11 00:17:49;;;;;;;7.65;4.45;;;;;;;23.61;36.78;101323.19;16112830;19;129337;-44
2023/06/11 00:23:11;;;;;;;7.95;4.82;;;;;;;23.61;37.09;101320.41;16116300;19;130872;-45
2023/06/11 00:28:33;;;;;;;5.32;4.53;;;;;;;23.60;37.18;101318.72;16116384;19;129197;-43
2023/06/11 00:33:55;;;;;;;6.78;4.80;;;;;;;23.60;37.15;101317.88;16112635;19;130943;-46
2023/06/11 00:39:17;;;;;;;6.05;5.05;;;;;;;23.60;37.09;101318.72;16107959;19;131912;-44
2023/06/11 00:44:39;;;;;;;9.60;4.88;;;;;;;23.60;37.03;101317.88;16111977;19;130197;-42
2023/06/11 00:50:04;;;;;;;5.93;4.70;;;;;;;23.59;37.03;101305.00;16109605;19;131116;-52
2023/06/11 00:55:25;;;;;;;9.53;5.07;;;;;;;23.58;37.50;101309.78;16112961;19;129479;-46
2023/06/11 01:00:52;;;;;;;7.03;4.75;;;;;;;23.58;37.23;101317.25;16113229;19;128893;-42
2023/06/11 01:06:17;;;;;;;9.23;4.55;;;;;;;23.58;36.81;101308.88;16109925;19;129580;-42
2023/06/11 01:11:39;;;;;;;6.47;4.50;;;;;;;23.56;37.27;101299.97;16110057;19;129432;-44
2023/06/11 01:17:10;;;;;;;5.97;4.53;;;;;;;23.56;37.19;101308.34;16111109;19;129312;-49
2023/06/11 01:22:58;;;;;;;6.43;4.72;;;;;;;23.57;37.05;101307.22;16112376;19;130147;-52
2023/06/11 01:28:28;;;;;;;6.47;4.55;;;;;;;23.56;37.18;101305.56;16107996;19;129245;-52
2023/06/11 01:33:51;;;;;;;6.43;4.30;;;;;;;23.55;37.01;101303.88;16111212;19;129337;-52
2023/06/11 01:39:13;;;;;;;7.65;4.53;;;;;;;23.53;37.40;101301.31;16105138;19;130819;-52
2023/06/11 01:44:34;;;;;;;5.25;4.25;;;;;;;23.53;37.27;101304.13;16104875;19;130819;-51
2023/06/11 01:49:57;;;;;;;5.00;4.50;;;;;;;23.53;37.29;101303.28;16106047;19;129306;-47
2023/06/11 01:55:19;;;;;;;6.90;4.90;;;;;;;23.53;37.43;101309.69;16108086;19;130467;-50
2023/06/11 02:00:41;;;;;;;5.28;4.65;;;;;;;23.53;37.46;101306.91;16123244;19;129159;-44
2023/06/11 02:06:03;;;;;;;5.38;4.68;;;;;;;23.53;37.43;101312.50;16123865;19;130349;-44
2023/06/11 02:11:25;;;;;;;4.20;3.80;;;;;;;23.52;37.50;101321.97;16120168;19;130044;-43
2023/06/11 02:16:47;;;;;;;5.00;4.40;;;;;;;23.51;37.37;101314.72;16124372;19;129572;-43
2023/06/11 02:22:09;;;;;;;5.85;4.60;;;;;;;23.51;37.43;101314.72;16121406;19;129525;-43
2023/06/11 02:27:32;;;;;;;4.55;3.92;;;;;;;23.50;37.60;101318.66;16127552;19;129796;-42
2023/06/11 02:32:53;;;;;;;5.85;4.53;;;;;;;23.50;37.43;101316.69;16121301;19;130511;-44
2023/06/11 02:38:18;;;;;;;5.60;4.47;;;;;;;23.50;37.55;101318.66;16118566;19;129442;-45
2023/06/11 02:43:40;;;;;;;5.10;4.03;;;;;;;23.50;37.43;101324.22;16118081;19;129992;-45
2023/06/11 02:49:02;;;;;;;6.32;4.70;;;;;;;23.49;37.28;101323.38;16121864;19;129729;-43
2023/06/11 02:54:24;;;;;;;6.18;4.43;;;;;;;23.49;37.17;101322.53;16119828;19;129524;-44
2023/06/11 02:59:46;;;;;;;4.45;4.05;;;;;;;23.49;37.48;101319.75;16120419;19;129511;-44
2023/06/11 03:05:08;;;;;;;5.55;4.35;;;;;;;23.49;37.87;101319.75;16118287;19;132995;-43
2023/06/11 03:10:30;;;;;;;4.35;3.88;;;;;;;23.48;37.49;101324.47;16118098;19;129465;-45
2023/06/11 03:15:52;;;;;;;4.70;4.00;;;;;;;23.48;37.65;101318.06;16118567;19;130511;-46
2023/06/11 03:21:14;;;;;;;5.15;3.97;;;;;;;23.47;37.56;101319.19;16120128;19;129566;-44
2023/06/11 03:26:36;;;;;;;6.88;4.53;;;;;;;23.46;37.91;101312.72;16119237;19;130626;-42
2023/06/11 03:31:58;;;;;;;4.97;4.22;;;;;;;23.46;37.56;101311.91;16118011;19;129878;-44
2023/06/11 03:37:20;;;;;;;6.47;4.53;;;;;;;23.45;37.66;101326.97;16115467;19;129568;-44
2023/06/11 03:42:42;;;;;;;4.88;4.38;;;;;;;23.46;37.62;101323.06;16118959;19;130516;-42
2023/06/11 03:48:05;;;;;;;8.75;4.43;;;;;;;23.45;37.76;101321.41;16116630;19;130358;-44
2023/06/11 03:53:27;;;;;;;5.70;4.47;;;;;;;23.45;37.88;101338.16;16117404;19;129518;-42
2023/06/11 03:58:50;;;;;;;5.80;4.45;;;;;;;23.44;37.61;101342.91;16116251;19;130034;-44
2023/06/11 04:04:12;;;;;;;5.90;4.57;;;;;;;23.44;37.74;101330.88;16115563;19;129897;-44
2023/06/11 04:09:35;;;;;;;9.25;5.03;;;;;;;23.44;37.56;101330.88;16115418;19;129868;-44
2023/06/11 04:14:56;;;;;;;5.30;4.50;;;;;;;23.42;37.79;101324.72;16116378;19;130063;-47
2023/06/11 04:20:18;;;;;;;4.50;4.10;;;;;;;23.42;37.87;101327.50;16114022;19;131768;-47
2023/06/11 04:25:41;;;;;;;5.85;4.40;;;;;;;23.42;37.75;101327.50;16116097;19;128935;-42
2023/06/11 04:31:04;;;;;;;6.30;4.40;;;;;;;23.41;37.44;101328.63;16112657;19;129620;-43
2023/06/11 04:36:27;;;;;;;5.85;4.47;;;;;;;23.42;37.99;101335.88;16112780;19;129398;-45
2023/06/11 04:41:51;;;;;;;5.25;4.47;;;;;;;23.40;37.75;101327.78;16112430;19;135149;-45
2023/06/11 04:47:13;;;;;;;4.90;4.40;;;;;;;23.41;37.98;101334.19;16113472;19;132813;-44
2023/06/11 04:52:38;;;;;;;5.63;4.20;;;;;;;23.41;37.72;101337.00;16112724;19;130896;-49
2023/06/11 04:58:00;;;;;;;4.32;3.88;;;;;;;23.40;37.83;101344.53;16111796;19;129535;-51
2023/06/11 05:03:24;;;;;;;5.07;4.20;;;;;;;23.40;38.17;101340.88;16109300;19;131689;-50
2023/06/11 05:08:46;;;;;;;5.05;4.53;;;;;;;23.40;38.15;101344.53;16113407;19;129552;-51
2023/06/11 05:14:08;;;;;;;7.53;4.80;;;;;;;23.40;37.85;101340.88;16108904;19;129636;-45
2023/06/11 05:19:30;;;;;;;4.22;3.83;;;;;;;23.40;37.74;101352.91;16109979;19;129721;-49
2023/06/11 05:24:53;;;;;;;5.88;4.32;;;;;;;23.39;37.84;101355.97;16113302;19;130894;-48
2023/06/11 05:30:15;;;;;;;5.47;4.28;;;;;;;23.39;38.07;101350.38;16109062;19;130350;-42
2023/06/11 05:35:38;;;;;;;4.75;4.25;;;;;;;23.40;37.98;101358.50;16125241;19;130561;-44
2023/06/11 05:41:01;;;;;;;5.40;4.60;;;;;;;23.40;37.99;101366.03;16125961;19;129698;-43
2023/06/11 05:46:25;;;;;;;4.63;4.07;;;;;;;23.40;37.87;101355.72;16126111;19;129882;-44
2023/06/11 05:51:47;;;;;;;5.07;3.97;;;;;;;23.40;37.75;101357.66;16125735;19;129848;-42
2023/06/11 05:57:24;;;;;;;5.20;4.40;;;;;;;23.42;37.95;101361.00;16123875;19;130390;-45
2023/06/11 06:02:46;;;;;;;4.85;4.13;;;;;;;23.39;37.97;101359.59;16123217;19;129401;-47
2023/06/11 06:08:08;;;;;;;5.47;4.28;;;;;;;23.40;37.85;101375.25;16122364;19;134811;-44
2023/06/11 06:13:30;;;;;;;4.47;4.05;;;;;;;23.40;38.14;101369.66;16122136;19;131706;-43
2023/06/11 06:18:52;;;;;;;8.77;4.57;;;;;;;23.40;38.10;101369.66;16123014;19;129469;-45
2023/06/11 06:24:14;;;;;;;4.97;4.32;;;;;;;23.41;38.08;101364.91;16122582;19;129830;-45
2023/06/11 06:29:38;;;;;;;5.15;4.20;;;;;;;23.41;38.47;101370.50;16123817;19;129350;-51
2023/06/11 06:35:00;;;;;;;4.97;3.88;;;;;;;23.42;38.49;101372.19;16123841;19;129302;-43
2023/06/11 06:40:23;;;;;;;5.22;4.38;;;;;;;23.43;37.85;101371.06;16125611;19;131425;-43
2023/06/11 06:45:45;;;;;;;4.88;4.28;;;;;;;23.43;38.12;101376.66;16122497;19;130095;-45
2023/06/11 06:51:07;;;;;;;5.25;3.83;;;;;;;23.43;38.32;101368.28;16122421;19;129440;-43
2023/06/11 06:56:29;;;;;;;6.45;4.32;;;;;;;23.44;38.17;101376.41;16127521;19;130665;-43
2023/06/11 07:01:51;;;;;;;4.53;4.13;;;;;;;23.44;38.10;101369.97;16120555;19;130731;-44
2023/06/11 07:07:14;;;;;;;6.90;4.25;;;;;;;23.46;38.47;101378.94;16117777;19;129275;-43
2023/06/11 07:12:36;;;;;;;5.68;4.85;;;;;;;23.49;38.76;101384.81;16119497;19;129621;-46
2023/06/11 07:17:58;;;;;;;6.57;4.80;;;;;;;23.55;38.92;101380.09;16119539;19;131529;-45
2023/06/11 07:23:20;;;;;;;6.32;4.30;;;;;;;23.58;38.76;101373.13;16118067;19;131276;-49
2023/06/11 07:28:43;;;;;;;5.53;4.47;;;;;;;23.63;39.46;101378.78;16118224;19;129923;-41
2023/06/11 07:34:06;;;;;;;5.20;4.50;;;;;;;23.65;39.12;101374.59;16115207;19;131227;-46
2023/06/11 07:39:28;;;;;;;9.20;4.60;;;;;;;23.69;39.15;101379.66;16116331;19;129846;-46
2023/06/11 07:44:50;;;;;;;11.07;4.75;;;;;;;23.72;39.33;101377.16;16117868;19;130049;-42
2023/06/11 07:50:11;;;;;;;16.42;5.15;;;;;;;23.74;39.03;101385.28;16116402;19;130171;-43
2023/06/11 07:55:34;;;;;;;5.53;4.85;;;;;;;23.77;39.45;101379.13;16112183;19;130554;-47
2023/06/11 08:00:56;;;;;;;8.98;4.88;;;;;;;23.78;39.66;101376.09;16112755;19;129527;-42
2023/06/11 08:06:18;;;;;;;6.35;4.75;;;;;;;23.81;39.77;101374.69;16110434;19;130024;-44
2023/06/11 08:11:41;;;;;;;11.98;4.88;;;;;;;23.82;39.69;101370.78;16113119;19;131175;-47
2023/06/11 08:17:03;;;;;;;5.07;4.57;;;;;;;23.84;39.55;101374.16;16113517;19;131201;-49
2023/06/11 08:22:25;;;;;;;8.07;4.72;;;;;;;23.87;39.50;101370.84;16114703;19;129493;-44
2023/06/11 08:27:47;;;;;;;7.72;4.50;;;;;;;23.89;39.65;101371.38;16111922;19;131382;-48
2023/06/11 08:33:09;;;;;;;6.00;4.68;;;;;;;23.90;39.55;101367.47;16113990;19;130166;-46
2023/06/11 08:38:31;;;;;;;5.72;4.45;;;;;;;23.90;39.15;101359.09;16109651;19;129479;-44
2023/06/11 08:43:56;;;;;;;7.20;4.55;;;;;;;23.92;39.19;101356.88;16110345;19;130551;-42
2023/06/11 08:49:22;;;;;;;6.03;4.53;;;;;;;23.93;39.54;101358.56;16109760;19;131332;-42
2023/06/11 08:54:44;;;;;;;5.70;4.55;;;;;;;23.94;39.64;101356.59;16107846;19;129370;-47
2023/06/11 09:00:09;;;;;;;6.35;4.25;;;;;;;23.95;39.67;101353.53;16108577;19;129498;-41
2023/06/11 09:05:31;;;;;;;;;;;;;;;23.93;39.56;101350.16;16109390;19;131743;-48
2023/06/11 09:10:54;;;;;;;6.43;4.43;;;;;;;23.96;39.41;101341.25;16125003;19;129389;-47
2023/06/11 09:16:15;;;;;;;9.57;4.68;;;;;;;23.97;39.93;101345.72;16125145;19;129873;-44
2023/06/11 09:21:38;;;;;;;6.07;4.30;;;;;;;23.99;39.54;101336.22;16127278;19;129795;-47
2023/06/11 09:27:00;;;;;;;4.63;4.22;;;;;;;24.01;39.52;101336.78;16127273;19;129904;-45
2023/06/11 09:32:25;;;;;;;5.32;4.82;;;;;;;24.02;39.56;101342.09;16125207;19;129265;-43
2023/06/11 09:37:55;;;;;;;17.75;4.75;;;;;;;24.05;39.97;101343.50;16126591;19;129707;-46
2023/06/11 09:43:21;;;;;;;16.92;5.80;;;;;;;24.07;40.01;101346.88;16125005;19;129074;-48
2023/06/11 09:48:44;;;;;;;14.07;5.15;;;;;;;24.09;40.00;101350.25;16127699;19;128900;-44
2023/06/11 09:54:08;;;;;;;6.93;4.60;;;;;;;24.14;40.01;101350.25;16127251;19;130775;-44
2023/06/11 09:59:33;;;;;;;10.98;4.55;;;;;;;24.17;39.86;101344.09;16128595;19;130148;-44
2023/06/11 10:04:55;;;;;;;8.25;4.45;;;;;;;24.19;40.32;101350.28;16125353;19;131040;-45
2023/06/11 10:10:21;;;;;;;6.38;4.55;;;;;;;24.22;39.90;101341.34;16126581;19;129564;-44
2023/06/11 10:15:48;;;;;;;10.25;4.57;;;;;;;24.27;39.90;101341.38;16125200;19;129265;-49
2023/06/11 10:21:10;;;;;;;11.05;4.78;;;;;;;24.29;39.90;101337.47;16123529;19;129467;-44
2023/06/11 10:26:34;;;;;;;7.05;4.35;;;;;;;24.31;39.88;101335.25;16126939;19;129585;-45
2023/06/11 10:31:56;;;;;;;9.27;4.27;;;;;;;24.32;40.09;101332.16;16121335;19;129977;-45
2023/06/11 10:37:26;;;;;;;6.05;4.38;;;;;;;24.36;40.13;101330.50;16120076;19;129696;-46
2023/06/11 10:42:52;;;;;;;6.45;4.20;;;;;;;24.38;39.97;101338.59;16118346;19;129749;-47
2023/06/11 10:48:14;;;;;;;7.00;4.43;;;;;;;24.39;39.85;101329.94;16119891;19;131108;-48
2023/06/11 10:53:40;;;;;;;11.15;4.40;;;;;;;24.41;39.76;101322.13;16119257;19;129913;-47
2023/06/11 10:59:09;;;;;;;7.47;3.75;;;;;;;24.42;40.12;101320.16;16121872;19;130656;-45
2023/06/11 11:04:31;;;;;;;8.20;4.38;;;;;;;24.45;40.18;101327.16;16121911;19;130295;-47
2023/06/11 11:09:55;;;;;;;11.65;4.10;;;;;;;24.47;40.28;101327.72;16121669;19;131829;-46
2023/06/11 11:15:17;;;;;;;5.78;3.78;;;;;;;24.49;40.41;101322.69;16115787;19;129278;-46
2023/06/11 11:20:39;;;;;;;5.30;4.15;;;;;;;24.49;39.99;101317.09;16117399;19;131033;-48
2023/06/11 11:26:04;;;;;;;5.30;4.10;;;;;;;24.50;40.12;101319.59;16118545;19;129636;-43
2023/06/11 11:31:26;;;;;;;6.45;4.28;;;;;;;24.51;40.02;101309.28;16117750;19;130792;-44
2023/06/11 11:36:48;;;;;;;5.50;4.00;;;;;;;24.52;40.16;101311.78;16118658;19;130077;-43
2023/06/11 11:42:10;;;;;;;4.68;4.15;;;;;;;24.53;40.15;101307.88;16115627;19;129697;-45
2023/06/11 11:47:35;;;;;;;5.75;3.90;;;;;;;24.55;40.06;101305.66;16118618;19;130457;-43
2023/06/11 11:53:05;;;;;;;4.72;4.15;;;;;;;24.56;40.16;101301.72;16116669;19;129131;-43
2023/06/11 11:58:27;;;;;;;9.73;3.85;;;;;;;24.56;39.79;101298.94;16118344;19;130679;-47
2023/06/11 12:04:03;;;;;;;5.50;4.53;;;;;;;24.58;40.09;101293.91;16114569;19;131419;-43
2023/06/11 12:09:25;;;;;;;;;;;;;;;24.54;40.12;101287.19;16115257;19;131349;-43
2023/06/11 12:14:47;;;;;;;7.00;4.32;;;;;;;24.60;40.08;101290.00;16116703;19;130198;-42
2023/06/11 12:20:09;;;;;;;5.88;5.05;;;;;;;24.60;39.85;101279.63;16113635;19;129871;-44
2023/06/11 12:25:32;;;;;;;7.15;4.28;;;;;;;24.62;39.80;101282.13;16113222;19;131402;-43
2023/06/11 12:30:55;;;;;;;5.40;4.18;;;;;;;24.62;40.11;101287.72;16110206;19;130503;-43
2023/06/11 12:36:17;;;;;;;6.88;3.97;;;;;;;24.62;39.80;101276.53;16114125;19;130104;-44
2023/06/11 12:41:39;;;;;;;8.23;4.40;;;;;;;24.63;40.00;101278.22;16113704;19;129539;-44
2023/06/11 12:47:01;;;;;;;6.55;3.90;;;;;;;24.64;40.07;101277.97;16111676;19;129593;-42
2023/06/11 12:52:23;;;;;;;5.03;4.50;;;;;;;24.63;39.77;101276.28;16109121;19;130321;-43
2023/06/11 12:57:45;;;;;;;6.55;3.85;;;;;;;24.65;39.98;101276.00;16107138;19;130811;-43
2023/06/11 13:03:07;;;;;;;6.47;4.63;;;;;;;24.64;39.60;101274.31;16106162;19;129696;-42
2023/06/11 13:08:29;;;;;;;5.70;4.55;;;;;;;24.66;39.43;101272.06;16107472;19;129837;-45
2023/06/11 13:13:52;;;;;;;4.85;3.80;;;;;;;24.66;39.60;101266.47;16108423;19;129601;-41
2023/06/11 13:19:14;;;;;;;7.45;4.32;;;;;;;24.66;39.60;101260.88;16106009;19;130513;-44
2023/06/11 13:24:36;;;;;;;4.53;4.15;;;;;;;24.65;39.69;101254.47;16109769;19;129712;-45
2023/06/11 13:29:59;;;;;;;6.10;4.00;;;;;;;24.67;39.50;101254.16;16109999;19;130956;-45
2023/06/11 13:35:21;;;;;;;6.00;3.85;;;;;;;24.68;39.54;101255.84;16107088;19;131047;-44
2023/06/11 13:40:43;;;;;;;4.95;3.67;;;;;;;24.68;39.61;101247.47;16109776;19;130923;-44
2023/06/11 13:46:04;;;;;;;6.05;4.30;;;;;;;24.66;39.38;101246.91;16107633;19;130028;-44
2023/06/11 13:51:30;;;;;;;4.55;4.15;;;;;;;24.61;39.50;101242.16;16108548;19;131430;-50
2023/06/11 13:56:53;;;;;;;4.93;4.03;;;;;;;24.58;39.66;101243.56;16125152;19;129837;-43
2023/06/11 14:02:15;;;;;;;6.15;4.30;;;;;;;24.54;39.50;101236.84;16120282;19;129871;-45
2023/06/11 14:07:38;;;;;;;5.30;4.25;;;;;;;24.52;39.58;101233.47;16119870;19;129430;-46
2023/06/11 14:13:00;;;;;;;8.73;4.47;;;;;;;24.51;39.88;101230.97;16121777;19;131746;-46
2023/06/11 14:18:22;;;;;;;6.05;4.18;;;;;;;24.50;39.56;101226.50;16120546;19;129585;-45
2023/06/11 14:23:44;;;;;;;8.05;4.00;;;;;;;24.49;39.33;101228.47;16120790;19;130985;-47
2023/06/11 14:29:07;;;;;;;8.25;4.10;;;;;;;24.49;39.61;101222.88;16105227;19;131303;-45
2023/06/11 14:34:29;;;;;;;11.40;4.03;;;;;;;24.52;39.69;101227.06;16121392;19;131791;-42
2023/06/11 14:39:51;;;;;;;5.35;4.05;;;;;;;24.57;39.56;101219.50;16123019;19;129646;-48
2023/06/11 14:45:13;;;;;;;8.23;4.00;;;;;;;24.61;39.22;101221.75;16120502;19;133679;-43
2023/06/11 14:50:35;;;;;;;7.25;4.38;;;;;;;24.64;39.25;101212.75;16122203;19;129484;-46
2023/06/11 14:55:57;;;;;;;8.60;3.88;;;;;;;24.65;39.48;101201.31;16121649;19;129570;-46
2023/06/11 15:01:19;;;;;;;5.55;3.95;;;;;;;24.67;39.11;101204.69;16114115;19;129345;-44
2023/06/11 15:06:41;;;;;;;4.80;3.90;;;;;;;24.68;39.17;101202.69;16115707;19;129666;-44
2023/06/11 15:12:05;;;;;;;7.43;3.72;;;;;;;24.69;38.88;101193.19;16115478;19;131171;-45
2023/06/11 15:17:29;;;;;;;3.90;3.55;;;;;;;24.70;39.04;101186.47;16113784;19;129607;-46
2023/06/11 15:22:51;;;;;;;6.77;4.43;;;;;;;24.69;38.79;101194.00;16116255;19;129358;-42
2023/06/11 15:28:13;;;;;;;5.75;3.80;;;;;;;24.71;39.08;101183.38;16115659;19;134486;-43
2023/06/11 15:33:35;;;;;;;4.20;3.80;;;;;;;24.71;38.64;101183.38;16118795;19;129599;-44
2023/06/11 15:38:57;;;;;;;5.18;3.55;;;;;;;24.72;38.76;101192.63;16116024;19;130908;-44
2023/06/11 15:44:19;;;;;;;4.97;3.80;;;;;;;24.71;38.78;101188.16;16118167;19;130364;-42
2023/06/11 15:49:41;;;;;;;3.67;3.25;;;;;;;24.73;38.95;101177.53;16116978;19;130425;-45
2023/06/11 15:55:03;;;;;;;6.78;3.90;;;;;;;24.72;38.69;101171.06;16114275;19;130715;-41
2023/06/11 16:00:25;;;;;;;7.75;3.38;;;;;;;24.73;38.52;101177.53;16116011;19;130565;-47
2023/06/11 16:05:48;;;;;;;3.72;3.38;;;;;;;24.74;38.48;101184.78;16118144;19;129628;-42
2023/06/11 16:11:10;;;;;;;7.50;3.80;;;;;;;24.73;38.41;101189.53;16116342;19;130624;-44
2023/06/11 16:16:32;;;;;;;4.82;3.45;;;;;;;24.75;38.21;101186.44;16116311;19;129470;-42
2023/06/11 16:21:54;;;;;;;4.80;3.40;;;;;;;24.74;38.46;101190.38;16114203;19;130373;-50
2023/06/11 16:27:17;;;;;;;6.88;4.05;;;;;;;24.75;38.45;101182.84;16089750;19;130318;-51
2023/06/11 16:32:42;;;;;;;;;;;;;;;24.69;38.45;101193.19;16108352;19;132084;-52
2023/06/11 16:38:04;;;;;;;4.20;3.80;;;;;;;24.69;38.63;101188.41;16111754;19;131936;-46
2023/06/11 16:43:26;;;;;;;5.60;4.00;;;;;;;24.69;38.41;101182.81;16111617;19;130947;-50
2023/06/11 16:48:50;;;;;;;10.57;3.92;;;;;;;24.66;38.31;101189.00;16107673;19;129647;-43
2023/06/11 16:54:16;;;;;;;5.03;3.95;;;;;;;24.64;38.41;101187.59;16108728;19;131155;-44
2023/06/11 16:59:39;;;;;;;27.75;16.60;;;;;;;24.65;38.43;101178.09;16100766;19;131524;-43
2023/06/11 17:05:01;;;;;;;34.50;22.38;;;;;;;24.64;38.24;101184.78;16104277;19;131203;-43
2023/06/11 17:10:27;;;;;;;33.47;19.58;;;;;;;24.61;38.29;101190.97;16112835;19;130545;-45
2023/06/11 17:15:49;;;;;;;33.13;18.90;;;;;;;24.60;37.89;101192.09;16108900;19;131421;-44
2023/06/11 17:21:11;;;;;;;26.48;17.00;;;;;;;24.59;38.43;101194.03;16106375;19;130018;-43
2023/06/11 17:26:33;;;;;;;26.73;16.65;;;;;;;24.56;37.83;101195.44;16113148;19;134752;-44
2023/06/11 17:31:55;;;;;;;28.33;17.05;;;;;;;24.56;37.63;101191.78;16121209;19;130435;-44
2023/06/11 17:37:17;;;;;;;23.98;15.20;;;;;;;24.55;37.64;101188.16;16119131;19;130606;-47
2023/06/11 17:42:41;;;;;;;23.55;14.55;;;;;;;24.55;38.00;101199.34;16124564;19;130723;-47
2023/06/11 17:48:03;;;;;;;20.83;13.02;;;;;;;24.54;37.82;101186.50;16120241;19;131087;-44
2023/06/11 17:53:25;;;;;;;22.13;13.05;;;;;;;24.53;37.63;101190.41;16123925;19;130735;-43
2023/06/11 17:58:47;;;;;;;23.23;12.52;;;;;;;24.53;37.55;101193.19;16125022;19;131575;-46
2023/06/11 18:04:09;;;;;;;16.42;11.40;;;;;;;24.53;37.17;101192.38;16121810;19;130828;-46
2023/06/11 18:09:31;;;;;;;21.33;11.05;;;;;;;24.53;37.16;101201.59;16118728;19;131356;-43
2023/06/11 18:14:53;;;;;;;14.95;9.75;;;;;;;24.53;36.86;101211.94;16121352;19;131037;-43
2023/06/11 18:20:15;;;;;;;14.38;9.30;;;;;;;24.53;36.82;101207.19;16121753;19;130833;-42
2023/06/11 18:25:37;;;;;;;16.23;9.30;;;;;;;24.52;36.54;101222.28;16126016;19;130498;-43
2023/06/11 18:30:59;;;;;;;12.15;8.10;;;;;;;24.52;36.60;101230.66;16121477;19;129557;-43
2023/06/11 18:36:21;;;;;;;13.57;8.32;;;;;;;24.51;36.66;101237.38;16116998;19;130043;-50
2023/06/11 18:41:43;;;;;;;11.60;7.53;;;;;;;24.51;36.17;101248.56;16118943;19;129816;-42
2023/06/11 18:47:05;;;;;;;11.38;7.38;;;;;;;24.51;36.66;101242.97;16131894;19;129514;-45
2023/06/11 18:52:27;;;;;;;9.13;7.32;;;;;;;24.50;36.46;101246.88;16126239;19;130161;-42
2023/06/11 18:57:50;;;;;;;11.15;7.55;;;;;;;24.50;36.57;101235.69;16126653;19;130214;-43
2023/06/11 19:03:12;;;;;;;11.68;7.03;;;;;;;24.49;36.43;101234.06;16121485;19;129619;-44
2023/06/11 19:08:34;;;;;;;7.90;6.50;;;;;;;24.48;36.26;101240.75;16126828;19;130384;-45
2023/06/11 19:13:56;;;;;;;8.23;6.30;;;;;;;24.48;36.30;101240.75;16119411;19;130284;-44
2023/06/11 19:19:18;;;;;;;7.88;6.45;;;;;;;24.48;36.05;101243.56;16121214;19;130290;-45
2023/06/11 19:24:40;;;;;;;9.43;5.95;;;;;;;24.48;35.91;101246.34;16123163;19;130553;-42
2023/06/11 19:30:03;;;;;;;10.63;6.45;;;;;;;24.48;36.17;101257.53;16123420;19;129272;-45
2023/06/11 19:35:26;;;;;;;6.72;5.70;;;;;;;24.47;36.20;101253.06;16119719;19;130067;-47
2023/06/11 19:40:48;;;;;;;8.45;6.15;;;;;;;24.47;36.03;101267.03;16122725;19;129729;-43
2023/06/11 19:46:10;;;;;;;10.57;6.00;;;;;;;24.47;36.15;101269.84;16119109;19;132020;-42
2023/06/11 19:51:32;;;;;;;8.20;5.45;;;;;;;24.46;35.89;101268.16;16121081;19;130334;-42
2023/06/11 19:56:54;;;;;;;7.03;5.38;;;;;;;24.47;36.20;101269.84;16122454;19;135392;-44
2023/06/11 20:02:17;;;;;;;7.68;5.72;;;;;;;24.45;35.90;101269.28;16117061;19;130752;-43
2023/06/11 20:07:39;;;;;;;6.15;5.22;;;;;;;24.45;35.85;101277.66;16121818;19;129458;-42
2023/06/11 20:13:02;;;;;;;8.95;5.50;;;;;;;24.45;35.93;101283.25;16113007;19;129881;-42
2023/06/11 20:18:24;;;;;;;8.00;5.25;;;;;;;24.44;35.98;101287.16;16114431;19;129700;-42
2023/06/11 20:23:46;;;;;;;9.75;5.55;;;;;;;24.45;35.94;101294.44;16116461;19;130231;-43
2023/06/11 20:29:09;;;;;;;7.20;5.60;;;;;;;24.45;36.38;101293.59;16112928;19;132337;-43
2023/06/11 20:34:31;;;;;;;6.22;4.80;;;;;;;24.43;36.03;101296.69;16114539;19;131220;-43
2023/06/11 20:39:53;;;;;;;5.80;4.78;;;;;;;24.43;35.99;101291.91;16110933;19;129384;-42
2023/06/11 20:45:14;;;;;;;7.40;5.10;;;;;;;24.45;36.14;101299.19;16107596;19;129898;-44
2023/06/11 20:50:39;;;;;;;9.23;4.63;;;;;;;24.45;35.92;101288.00;16115408;19;131007;-44
2023/06/11 20:56:01;;;;;;;6.80;4.97;;;;;;;24.46;35.93;101295.28;16112570;19;130877;-45
2023/06/11 21:01:23;;;;;;;6.50;4.85;;;;;;;24.46;36.10;101289.69;16114402;19;130314;-43
2023/06/11 21:06:45;;;;;;;8.93;5.25;;;;;;;24.47;36.40;101292.22;16129728;19;129555;-45
2023/06/11 21:12:07;;;;;;;10.10;5.03;;;;;;;24.47;35.75;101289.41;16130160;19;129828;-44
2023/06/11 21:17:29;;;;;;;8.10;4.63;;;;;;;24.49;36.23;101303.13;16128219;19;130713;-45
2023/06/11 21:22:51;;;;;;;7.25;4.78;;;;;;;24.48;36.21;101291.09;16125040;19;129760;-44
2023/06/11 21:28:13;;;;;;;6.82;5.22;;;;;;;24.48;36.31;101293.91;16125143;19;133086;-44
2023/06/11 21:33:35;;;;;;;7.35;4.32;;;;;;;24.49;36.05;101300.31;16120605;19;132892;-43
2023/06/11 21:38:57;;;;;;;5.70;4.85;;;;;;;24.48;36.05;101298.63;16120768;19;129716;-46
2023/06/11 21:44:19;;;;;;;5.47;4.28;;;;;;;24.48;36.12;101302.28;16124685;19;130072;-43
2023/06/11 21:49:41;;;;;;;7.45;4.35;;;;;;;24.48;36.48;101301.44;16120280;19;130597;-45
2023/06/11 21:55:06;;;;;;;5.50;4.75;;;;;;;24.46;36.32;101301.72;16122601;19;129555;-45
2023/06/11 22:00:28;;;;;;;;;;;;;;;24.42;36.40;101295.84;16126422;19;130698;-46
2023/06/11 22:05:52;;;;;;;6.05;4.80;;;;;;;24.47;36.71;101313.72;16126222;19;131848;-44
2023/06/11 22:11:14;;;;;;;6.60;4.50;;;;;;;24.45;36.40;101315.97;16121526;19;131891;-45
2023/06/11 22:16:37;;;;;;;7.63;4.40;;;;;;;24.43;36.80;101319.03;16121820;19;129513;-42
2023/06/11 22:22:00;;;;;;;6.25;4.40;;;;;;;24.43;36.34;101330.22;16128730;19;129662;-45
2023/06/11 22:27:22;;;;;;;7.00;4.50;;;;;;;24.41;36.46;101329.66;16120703;19;130785;-47
2023/06/11 22:32:43;;;;;;;6.03;4.82;;;;;;;24.42;36.51;101328.56;16124596;19;130335;-45
2023/06/11 22:38:05;;;;;;;8.65;4.38;;;;;;;24.41;36.59;101326.88;16120587;19;131015;-44
2023/06/11 22:43:27;;;;;;;5.18;4.60;;;;;;;24.41;36.58;101335.25;16123759;19;129149;-45
2023/06/11 22:48:51;;;;;;;5.28;4.28;;;;;;;24.41;36.48;101343.66;16123150;19;129616;-44
2023/06/11 22:54:12;;;;;;;7.47;4.15;;;;;;;24.40;36.65;101347.56;16123593;19;131432;-43
2023/06/11 22:59:34;;;;;;;5.18;4.00;;;;;;;24.39;36.53;101349.53;16118964;19;129871;-44
2023/06/11 23:04:56;;;;;;;5.28;4.35;;;;;;;24.39;36.82;101359.84;16122463;19;130150;-48
2023/06/11 23:10:18;;;;;;;5.30;4.47;;;;;;;24.39;36.61;101365.44;16117251;19;131157;-43
2023/06/11 23:15:40;;;;;;;5.35;4.32;;;;;;;24.38;36.78;101359.03;16117222;19;130145;-47
2023/06/11 23:21:04;;;;;;;4.80;4.30;;;;;;;24.38;36.61;101366.56;16118842;19;129517;-46
2023/06/11 23:26:27;;;;;;;6.28;4.00;;;;;;;24.38;36.83;101372.16;16119505;19;129590;-47
2023/06/11 23:31:49;;;;;;;6.35;4.68;;;;;;;24.36;36.43;101378.03;16117239;19;130846;-48
2023/06/11 23:37:13;;;;;;;7.07;4.15;;;;;;;24.36;36.48;101374.41;16117248;19;129760;-47
2023/06/11 23:42:35;;;;;;;4.68;4.18;;;;;;;24.35;36.92;101361.53;16118707;19;130983;-44
2023/06/11 23:47:57;;;;;;;5.40;4.20;;;;;;;24.34;36.98;101366.28;16117613;19;129681;-48
2023/06/11 23:53:19;;;;;;;4.43;4.00;;;;;;;24.34;36.78;101371.03;16116511;19;130322;-46
2023/06/11 23:58:41;;;;;;;5.15;4.50;;;;;;;24.34;36.96;101371.03;16118554;19;129298;-46
